Time;durP1;ratioP1;P1;durP2;ratioP2;P2;SDS_P1;SDS_P2;PMS_P1;PMS_P2;Temp;Humidity;BMP_temperature;BMP_pressure;BME280_temperature;BME280_humidity;BME280_pressure;Samples;Min_cycle;Max_cycle;Signal;HPM_P1;HPM_P2
2021/03/30 00:01:09;;;;;;;6.93;3.78;;;7.60;85.60;;;;;;6278047;28;20046;-85
2021/03/30 00:04:10;;;;;;;14.32;5.38;;;7.70;86.50;;;;;;6261196;28;20575;-85
2021/03/30 00:07:10;;;;;;;4.80;3.42;;;8.20;85.00;;;;;;6261363;28;20020;-85
2021/03/30 00:10:14;;;;;;;5.63;3.33;;;7.50;85.40;;;;;;6277077;28;20123;-85
2021/03/30 00:13:14;;;;;;;6.00;3.85;;;7.80;86.20;;;;;;6261631;28;20094;-86
2021/03/30 00:16:15;;;;;;;7.45;3.80;;;7.40;95.70;;;;;;6277748;28;20024;-86
2021/03/30 00:19:15;;;;;;;6.57;3.70;;;7.80;86.20;;;;;;6261106;28;20033;-85
2021/03/30 00:22:16;;;;;;;6.78;3.60;;;8.50;86.40;;;;;;6261119;28;20048;-85
2021/03/30 00:25:17;;;;;;;5.32;3.72;;;7.60;85.80;;;;;;6260972;28;20024;-85
2021/03/30 00:28:18;;;;;;;6.95;3.70;;;;;;;;;;6277594;28;20024;-85
2021/03/30 00:31:18;;;;;;;4.05;3.20;;;7.90;80.20;;;;;;6293952;28;20024;-85
2021/03/30 00:34:19;;;;;;;7.00;3.75;;;8.00;82.80;;;;;;6277187;28;20035;-84
2021/03/30 00:37:20;;;;;;;4.47;3.80;;;;;;;;;;6260530;28;20356;-85
2021/03/30 00:40:21;;;;;;;5.28;3.45;;;;;;;;;;6276620;28;20126;-85
2021/03/30 00:43:21;;;;;;;8.23;3.70;;;8.00;94.60;;;;;;6293541;28;20036;-85
2021/03/30 00:46:24;;;;;;;4.70;3.47;;;8.00;95.40;;;;;;6277092;28;20025;-86
2021/03/30 00:49:24;;;;;;;5.93;3.45;;;7.80;94.50;;;;;;6277415;28;20036;-86
2021/03/30 00:52:25;;;;;;;5.80;3.55;;;7.70;94.50;;;;;;6260450;28;20250;-86
2021/03/30 00:55:26;;;;;;;6.15;3.60;;;7.50;99.90;;;;;;6276651;28;20024;-85
2021/03/30 00:58:27;;;;;;;6.88;3.80;;;;;;;;;;6276710;28;20029;-86
2021/03/30 01:01:28;;;;;;;7.93;4.38;;;;;;;;;;6293488;28;20059;-86
2021/03/30 01:04:29;;;;;;;6.88;4.25;;;7.20;99.90;;;;;;6292345;28;20023;-86
2021/03/30 01:07:29;;;;;;;5.28;3.75;;;;;;;;;;6260043;28;20033;-86
2021/03/30 01:10:49;;;;;;;6.13;4.15;;;6.90;95.10;;;;;;6275968;28;20021;-85
2021/03/30 01:14:09;;;;;;;5.55;3.70;;;6.90;94.80;;;;;;6294766;28;20108;-85
2021/03/30 01:17:25;;;;;;;5.78;4.05;;;7.00;95.00;;;;;;6278433;28;20020;-85
2021/03/30 01:21:11;;;;;;;5.93;3.33;;;7.20;95.90;;;;;;6294272;28;20062;-85
2021/03/30 01:24:46;;;;;;;5.55;3.55;;;7.30;95.70;;;;;;6292941;28;20145;-86
2021/03/30 01:28:03;;;;;;;5.13;3.40;;;7.50;87.00;;;;;;6271418;28;20089;-85
2021/03/30 01:31:04;;;;;;;6.90;4.03;;;7.40;87.10;;;;;;6259611;28;20036;-85
2021/03/30 01:34:14;;;;;;;8.65;4.00;;;7.20;97.10;;;;;;6275725;28;20032;-87
2021/03/30 01:37:16;;;;;;;4.65;3.50;;;7.90;90.10;;;;;;6275234;28;20052;-84
2021/03/30 01:40:24;;;;;;;4.72;3.45;;;7.40;89.70;;;;;;6258166;28;20067;-84
2021/03/30 01:43:24;;;;;;;5.30;3.40;;;7.20;90.40;;;;;;6292993;28;20074;-85
2021/03/30 01:46:27;;;;;;;7.38;3.75;;;6.90;91.40;;;;;;6258784;28;20068;-84
2021/03/30 01:49:28;;;;;;;4.25;3.40;;;8.30;91.60;;;;;;6275842;28;20035;-85
2021/03/30 01:52:28;;;;;;;6.20;3.67;;;6.80;91.60;;;;;;6258559;28;20498;-84
2021/03/30 01:55:29;;;;;;;5.78;3.42;;;6.60;92.30;;;;;;6275516;28;20108;-84
2021/03/30 01:58:30;;;;;;;6.20;3.50;;;;;;;;;;6275535;28;20037;-84
2021/03/30 02:01:30;;;;;;;5.05;3.70;;;6.60;90.30;;;;;;6275391;28;20527;-85
2021/03/30 02:04:31;;;;;;;4.20;3.75;;;7.80;92.20;;;;;;6275064;28;20037;-85
2021/03/30 02:07:32;;;;;;;5.60;3.40;;;7.00;91.40;;;;;;6275110;28;20064;-85
2021/03/30 02:13:42;;;;;;;4.18;3.38;;;7.30;90.10;;;;;;6291984;28;20508;-86
2021/03/30 02:17:07;;;;;;;6.47;4.22;;;7.60;91.80;;;;;;6275311;28;20024;-85
2021/03/30 02:20:11;;;;;;;6.57;3.42;;;6.70;99.50;;;;;;6275758;28;20116;-85
2021/03/30 02:23:16;;;;;;;5.72;3.70;;;6.80;90.20;;;;;;6274920;28;20033;-85
2021/03/30 02:26:16;;;;;;;6.30;3.65;;;6.90;89.40;;;;;;6275484;28;20021;-85
2021/03/30 02:29:20;;;;;;;6.20;3.50;;;7.10;91.40;;;;;;6258696;28;20075;-85
2021/03/30 02:32:21;;;;;;;6.03;3.38;;;7.40;91.20;;;;;;6274931;28;20032;-85
2021/03/30 02:35:22;;;;;;;6.50;3.45;;;7.10;91.10;;;;;;6258375;28;20144;-86
2021/03/30 02:38:24;;;;;;;6.70;3.47;;;7.10;90.40;;;;;;6261192;28;20056;-85
2021/03/30 02:41:26;;;;;;;9.95;4.03;;;7.10;90.90;;;;;;6305784;28;20071;-85
2021/03/30 02:44:27;;;;;;;5.82;3.38;;;7.20;91.10;;;;;;6290329;28;20012;-85
2021/03/30 02:47:27;;;;;;;6.25;3.63;;;6.70;98.80;;;;;;6305640;28;20031;-86
2021/03/30 02:50:28;;;;;;;6.63;3.67;;;6.70;91.70;;;;;;6289697;28;20032;-85
2021/03/30 02:53:29;;;;;;;6.65;3.53;;;6.80;91.80;;;;;;6306518;28;20029;-85
2021/03/30 02:56:30;;;;;;;7.28;3.55;;;6.70;91.20;;;;;;6290328;28;20029;-86
2021/03/30 02:59:30;;;;;;;8.02;3.75;;;6.90;92.00;;;;;;6278854;28;20039;-84
2021/03/30 03:02:31;;;;;;;7.50;3.65;;;7.20;92.00;;;;;;6275402;28;20037;-84
2021/03/30 03:05:32;;;;;;;5.80;3.95;;;;;;;;;;6258557;28;20472;-86
2021/03/30 03:08:32;;;;;;;7.10;3.47;;;6.70;90.30;;;;;;6292899;28;20619;-86
2021/03/30 03:11:33;;;;;;;6.53;3.42;;;7.00;92.50;;;;;;6259523;28;20067;-85
2021/03/30 03:14:34;;;;;;;4.00;3.38;;;7.40;92.30;;;;;;6275226;28;20040;-85
2021/03/30 03:17:35;;;;;;;5.60;4.43;;;6.90;92.50;;;;;;6257524;28;20074;-85
2021/03/30 03:20:37;;;;;;;4.97;3.70;;;7.10;99.50;;;;;;6274390;28;20032;-85
2021/03/30 03:23:38;;;;;;;4.13;3.72;;;7.40;92.20;;;;;;6258050;28;21070;-85
2021/03/30 03:26:39;;;;;;;6.47;3.90;;;;;;;;;;6274850;28;20028;-85
2021/03/30 03:29:40;;;;;;;6.43;3.55;;;7.00;90.40;;;;;;6279273;28;20546;-84
2021/03/30 03:32:40;;;;;;;9.40;3.97;;;7.40;92.00;;;;;;6262502;28;20024;-83
2021/03/30 03:36:08;;;;;;;5.00;3.35;;;7.50;91.70;;;;;;6262442;28;20086;-85
2021/03/30 03:39:11;;;;;;;4.40;3.55;;;7.20;91.60;;;;;;6279868;28;20352;-84
2021/03/30 03:42:12;;;;;;;5.78;3.63;;;6.90;99.80;;;;;;6278762;28;20060;-86
2021/03/30 03:45:12;;;;;;;6.60;3.55;;;7.40;92.50;;;;;;6278826;28;20074;-85
2021/03/30 03:48:13;;;;;;;5.43;4.50;;;6.90;92.40;;;;;;6278649;28;20029;-85
2021/03/30 03:51:14;;;;;;;4.97;3.95;;;7.00;93.30;;;;;;6261717;28;20029;-84
2021/03/30 03:54:16;;;;;;;5.10;3.63;;;7.50;93.40;;;;;;6262085;28;20165;-85
2021/03/30 03:57:17;;;;;;;;;;;7.20;93.30;;;;;;6279298;28;20512;-84
2021/03/30 04:00:22;;;;;;;6.75;3.70;;;6.90;92.90;;;;;;6295174;28;19916;-85
2021/03/30 04:03:24;;;;;;;7.50;4.22;;;6.90;92.60;;;;;;6261974;28;20517;-84
2021/03/30 04:06:30;;;;;;;5.07;4.00;;;6.80;98.30;;;;;;6278876;28;20029;-84
2021/03/30 04:09:31;;;;;;;4.22;3.28;;;;;;;;;;6278171;28;20213;-85
2021/03/30 04:12:32;;;;;;;6.50;3.63;;;6.60;99.90;;;;;;6295480;28;20024;-83
2021/03/30 04:15:33;;;;;;;7.45;4.03;;;;;;;;;;6278633;28;20020;-84
2021/03/30 04:18:34;;;;;;;5.68;3.90;;;;;;;;;;6278585;28;20370;-84
2021/03/30 04:21:35;;;;;;;5.28;3.83;;;6.00;92.00;;;;;;6278379;28;20036;-85
2021/03/30 04:24:35;;;;;;;5.88;3.42;;;6.50;94.30;;;;;;6261261;28;20039;-85
2021/03/30 04:27:36;;;;;;;4.93;3.75;;;;;;;;;;6277846;28;20065;-84
2021/03/30 04:30:37;;;;;;;8.70;3.90;;;6.20;92.20;;;;;;6277829;28;20128;-83
2021/03/30 04:33:38;;;;;;;6.28;4.15;;;6.10;94.20;;;;;;6261381;28;20025;-84
2021/03/30 04:36:38;;;;;;;6.63;4.10;;;6.30;99.90;;;;;;6261864;28;20032;-85
2021/03/30 04:39:39;;;;;;;5.68;3.90;;;6.60;94.90;;;;;;6260881;28;20467;-85
2021/03/30 04:42:39;;;;;;;5.60;4.10;;;6.90;94.60;;;;;;6260406;28;20122;-84
2021/03/30 04:45:40;;;;;;;7.93;5.55;;;6.20;94.30;;;;;;6277295;28;20100;-84
2021/03/30 04:48:41;;;;;;;6.57;5.15;;;6.90;94.40;;;;;;6260703;28;20486;-83
2021/03/30 04:51:41;;;;;;;16.00;11.48;;;6.50;94.10;;;;;;6277295;28;20124;-83
2021/03/30 04:54:42;;;;;;;10.98;6.75;;;6.50;93.70;;;;;;6277773;28;20550;-83
2021/03/30 04:57:42;;;;;;;7.25;4.25;;;6.80;93.60;;;;;;6259247;28;20028;-83
2021/03/30 05:00:43;;;;;;;6.75;5.20;;;7.50;94.10;;;;;;6260458;28;20032;-82
2021/03/30 05:03:44;;;;;;;5.13;4.10;;;6.30;99.90;;;;;;6259209;28;20059;-85
2021/03/30 05:06:45;;;;;;;68.43;37.90;;;;;;;;;;6277009;28;20363;-83
2021/03/30 05:09:45;;;;;;;9.32;6.20;;;6.40;92.20;;;;;;6277028;28;20116;-83
2021/03/30 05:12:46;;;;;;;4.85;4.13;;;6.80;94.10;;;;;;6259963;28;20467;-84
2021/03/30 05:15:46;;;;;;;14.75;13.15;;;6.30;93.90;;;;;;6260129;28;20025;-84
2021/03/30 05:18:47;;;;;;;5.95;4.75;;;6.50;93.80;;;;;;6275877;28;20028;-84
2021/03/30 05:21:48;;;;;;;6.07;4.13;;;6.70;94.10;;;;;;6276467;28;20467;-84
2021/03/30 05:24:48;;;;;;;5.80;4.22;;;6.90;94.50;;;;;;6258737;28;20029;-84
2021/03/30 05:27:52;;;;;;;6.03;4.20;;;8.40;94.70;;;;;;6276598;28;20029;-88
2021/03/30 05:30:53;;;;;;;6.15;4.43;;;6.10;95.20;;;;;;6260580;28;20432;-89
2021/03/30 05:33:53;;;;;;;6.13;4.90;;;6.30;94.80;;;;;;6260631;28;20028;-89
2021/03/30 05:36:55;;;;;;;7.13;5.55;;;;;;;;;;6260672;28;20174;-88
2021/03/30 05:40:13;;;;;;;6.00;4.93;;;5.20;93.10;;;;;;6275482;28;20036;-89
2021/03/30 05:43:17;;;;;;;8.02;6.00;;;6.30;99.90;;;;;;6262216;28;20076;-89
2021/03/30 05:50:19;;;;;;;10.32;5.43;;;6.80;93.50;;;;;;6295272;28;20032;-89
2021/03/30 05:53:20;;;;;;;11.70;6.30;;;6.90;94.00;;;;;;6261160;28;20043;-89
2021/03/30 05:56:27;;;;;;;19.38;8.48;;;8.70;90.00;;;;;;6259726;28;20024;-90
2021/03/30 05:59:27;;;;;;;8.10;5.15;;;8.80;98.20;;;;;;6260762;28;20032;-89
2021/03/30 06:02:58;;;;;;;6.07;4.20;;;9.60;84.60;;;;;;6258292;28;20139;-84
2021/03/30 06:06:00;;;;;;;7.00;4.28;;;10.20;81.30;;;;;;6273351;28;20419;-85
2021/03/30 06:09:06;;;;;;;6.70;4.03;;;10.40;77.60;;;;;;6291729;28;20604;-89
2021/03/30 06:12:10;;;;;;;6.15;4.10;;;10.80;93.70;;;;;;6275336;28;20043;-87
2021/03/30 06:15:11;;;;;;;8.60;5.15;;;10.70;79.70;;;;;;6275844;28;20648;-87
2021/03/30 06:18:19;;;;;;;11.40;5.30;;;11.80;92.20;;;;;;6275884;28;20031;-90
2021/03/30 06:21:33;;;;;;;6.93;4.75;;;11.80;91.80;;;;;;6259537;28;20037;-93
2021/03/30 06:24:33;;;;;;;6.75;3.83;;;12.20;87.70;;;;;;6260422;28;20029;-89
2021/03/30 06:27:34;;;;;;;5.35;4.03;;;;;;;;;;6259327;28;20094;-89
2021/03/30 06:31:03;;;;;;;6.40;4.57;;;12.70;69.00;;;;;;6279196;28;20119;-91
2021/03/30 06:38:07;;;;;;;7.80;4.72;;;12.80;71.30;;;;;;6294179;28;20482;-94
2021/03/30 06:41:31;;;;;;;7.25;4.90;;;12.90;87.30;;;;;;6260177;28;20057;-88
2021/03/30 06:44:39;;;;;;;9.00;4.72;;;13.60;87.10;;;;;;6260807;28;20041;-91
2021/03/30 06:47:40;;;;;;;9.02;4.10;;;13.70;70.60;;;;;;6257387;28;20040;-84
2021/03/30 06:50:42;;;;;;;9.23;5.20;;;14.20;70.30;;;;;;6259681;28;20039;-90
2021/03/30 06:53:43;;;;;;;7.32;4.38;;;14.40;70.00;;;;;;6259506;28;20455;-83
2021/03/30 06:56:50;;;;;;;5.18;4.30;;;15.50;90.80;;;;;;6274770;28;20060;-91
2021/03/30 06:59:54;;;;;;;8.10;4.97;;;15.70;70.30;;;;;;6273048;28;20123;-90
2021/03/30 07:03:02;;;;;;;12.05;5.00;;;15.60;81.70;;;;;;6256954;28;20060;-83
2021/03/30 07:06:09;;;;;;;8.23;4.15;;;15.90;77.30;;;;;;6296319;28;20020;-86
2021/03/30 07:09:10;;;;;;;8.30;4.32;;;16.80;74.50;;;;;;6278155;28;20051;-82
2021/03/30 07:12:11;;;;;;;5.75;4.20;;;16.70;71.00;;;;;;6262792;28;20393;-82
2021/03/30 07:15:12;;;;;;;10.68;4.43;;;16.60;72.80;;;;;;6262135;28;20039;-82
2021/03/30 07:18:40;;;;;;;7.68;3.90;;;16.80;69.80;;;;;;6279294;28;20040;-83
2021/03/30 07:21:49;;;;;;;6.05;3.65;;;17.10;64.10;;;;;;6295132;28;20040;-81
2021/03/30 07:24:54;;;;;;;9.20;3.88;;;17.80;64.30;;;;;;6279541;28;20033;-80
2021/03/30 07:28:00;;;;;;;7.70;3.65;;;18.40;63.20;;;;;;6261823;28;20068;-79
2021/03/30 07:31:05;;;;;;;6.55;3.40;;;18.80;64.80;;;;;;6295473;28;20033;-80
2021/03/30 07:34:12;;;;;;;7.43;4.38;;;19.20;64.50;;;;;;6294563;28;20027;-80
2021/03/30 07:37:44;;;;;;;5.00;3.90;;;19.50;57.30;;;;;;6294242;28;20032;-81
2021/03/30 07:40:45;;;;;;;8.77;3.92;;;19.50;58.70;;;;;;6287264;28;20167;-81
2021/03/30 07:43:46;;;;;;;5.93;4.00;;;20.00;59.30;;;;;;6278615;28;20028;-85
2021/03/30 07:46:46;;;;;;;4.88;3.40;;;20.60;65.80;;;;;;6277136;28;20109;-84
2021/03/30 07:49:50;;;;;;;7.05;4.50;;;20.90;55.90;;;;;;6278191;28;20074;-83
2021/03/30 07:52:54;;;;;;;5.85;3.67;;;20.60;55.40;;;;;;6294611;28;20032;-82
2021/03/30 07:55:54;;;;;;;5.95;3.70;;;20.70;52.70;;;;;;6293945;28;20032;-81
2021/03/30 07:58:58;;;;;;;5.45;3.65;;;21.20;54.60;;;;;;6261577;28;20045;-83
2021/03/30 08:01:59;;;;;;;5.47;3.80;;;21.20;53.00;;;;;;6294826;28;20445;-81
2021/03/30 08:05:07;;;;;;;6.90;3.85;;;21.40;54.20;;;;;;6294224;28;20036;-84
2021/03/30 08:08:22;;;;;;;6.90;3.58;;;22.20;49.40;;;;;;6294030;28;20032;-86
2021/03/30 08:11:43;;;;;;;4.03;3.30;;;22.70;52.10;;;;;;6293873;28;20024;-82
2021/03/30 08:14:44;;;;;;;5.60;3.60;;;23.00;50.10;;;;;;6293498;28;20032;-82
2021/03/30 08:17:45;;;;;;;4.38;3.83;;;23.30;51.00;;;;;;6294234;28;20032;-82
2021/03/30 08:21:08;;;;;;;6.13;3.67;;;23.40;51.40;;;;;;6294351;28;20064;-82
2021/03/30 08:24:09;;;;;;;6.43;3.80;;;23.70;49.70;;;;;;6294010;28;20037;-82
2021/03/30 08:27:32;;;;;;;4.45;3.40;;;24.10;48.60;;;;;;6260927;28;20033;-82
2021/03/30 08:30:42;;;;;;;6.60;3.63;;;25.10;45.20;;;;;;6279694;28;20539;-82
2021/03/30 08:33:42;;;;;;;5.15;3.28;;;25.20;51.20;;;;;;6293554;28;20032;-82
2021/03/30 08:36:43;;;;;;;5.90;3.53;;;25.30;54.40;;;;;;6292104;28;20032;-82
2021/03/30 08:39:44;;;;;;;4.70;3.77;;;25.90;47.40;;;;;;6294901;28;20037;-82
2021/03/30 08:42:56;;;;;;;7.22;3.58;;;26.50;47.70;;;;;;6294328;28;20059;-82
2021/03/30 08:45:59;;;;;;;6.05;3.72;;;25.80;40.40;;;;;;6278472;28;20054;-81
2021/03/30 08:49:00;;;;;;;5.25;3.95;;;25.90;42.70;;;;;;6294424;28;20040;-85
2021/03/30 08:52:14;;;;;;;13.30;4.87;;;25.80;43.90;;;;;;6261532;28;20044;-82
2021/03/30 08:55:15;;;;;;;6.00;3.83;;;26.40;40.50;;;;;;6260156;28;20024;-81
2021/03/30 08:58:15;;;;;;;4.23;3.83;;;26.20;40.20;;;;;;6294523;28;20024;-82
2021/03/30 09:01:16;;;;;;;5.17;3.83;;;26.60;52.90;;;;;;6278682;28;20049;-82
2021/03/30 09:04:16;;;;;;;7.67;3.97;;;26.40;51.30;;;;;;6280487;28;20387;-82
2021/03/30 09:07:17;;;;;;;5.07;3.70;;;26.50;52.40;;;;;;6278668;28;20037;-82
2021/03/30 09:10:18;;;;;;;6.32;3.88;;;26.30;40.30;;;;;;6277801;28;20029;-81
2021/03/30 09:13:19;;;;;;;4.83;3.73;;;26.50;38.20;;;;;;6276270;28;20047;-81
2021/03/30 09:16:19;;;;;;;4.50;3.50;;;26.50;37.90;;;;;;6292451;28;20635;-81
2021/03/30 09:19:21;;;;;;;11.07;3.80;;;26.50;36.70;;;;;;6275483;28;20024;-82
2021/03/30 09:25:41;;;;;;;7.53;3.95;;;27.00;35.50;;;;;;6276286;28;20497;-83
2021/03/30 09:28:43;;;;;;;7.25;3.92;;;26.90;36.30;;;;;;6262467;28;20474;-84
2021/03/30 09:31:45;;;;;;;7.93;3.75;;;26.70;36.60;;;;;;6276126;28;20043;-86
2021/03/30 09:34:46;;;;;;;5.15;3.60;;;26.90;35.40;;;;;;6276241;28;20039;-86
2021/03/30 09:37:52;;;;;;;5.15;3.75;;;27.10;35.60;;;;;;6259610;28;20558;-85
2021/03/30 09:40:53;;;;;;;5.65;4.10;;;27.10;35.10;;;;;;6275313;28;20585;-84
2021/03/30 09:43:54;;;;;;;9.97;4.07;;;27.00;37.20;;;;;;6292498;28;20035;-83
2021/03/30 09:46:55;;;;;;;5.40;3.73;;;27.20;37.80;;;;;;6276039;28;20039;-84
2021/03/30 09:49:56;;;;;;;5.22;3.80;;;27.30;35.30;;;;;;6259169;28;20048;-85
2021/03/30 09:53:04;;;;;;;7.90;3.73;;;27.40;35.60;;;;;;6274931;28;20031;-86
2021/03/30 09:56:05;;;;;;;8.73;4.63;;;27.70;34.90;;;;;;6291807;28;20478;-84
2021/03/30 09:59:05;;;;;;;7.15;4.43;;;27.60;38.60;;;;;;6258500;28;20039;-82
2021/03/30 10:02:06;;;;;;;7.17;3.90;;;27.80;39.10;;;;;;6258788;28;20071;-84
2021/03/30 10:05:07;;;;;;;5.40;4.27;;;28.20;39.10;;;;;;6258681;28;20463;-85
2021/03/30 10:08:21;;;;;;;4.50;3.88;;;27.80;38.30;;;;;;6258311;28;20032;-87
2021/03/30 10:11:26;;;;;;;7.43;4.30;;;28.00;35.40;;;;;;6275255;28;20136;-83
2021/03/30 10:14:27;;;;;;;8.15;4.65;;;28.10;37.90;;;;;;6258440;28;20060;-82
2021/03/30 10:17:29;;;;;;;6.40;3.77;;;29.10;38.20;;;;;;6275083;28;20020;-83
2021/03/30 10:20:30;;;;;;;7.15;3.97;;;;;;;;;;6274869;28;20252;-83
2021/03/30 10:23:35;;;;;;;7.78;3.80;;;28.00;33.40;;;;;;6274964;28;20077;-82
2021/03/30 10:26:35;;;;;;;8.05;4.18;;;28.00;35.20;;;;;;6275201;28;20106;-82
2021/03/30 10:29:39;;;;;;;5.90;3.67;;;27.90;35.10;;;;;;6258714;28;20025;-84
2021/03/30 10:32:53;;;;;;;5.47;3.80;;;27.80;34.50;;;;;;6259264;28;20024;-83
2021/03/30 10:35:53;;;;;;;6.70;4.20;;;27.70;33.90;;;;;;6292253;28;20031;-83
2021/03/30 10:39:10;;;;;;;6.83;4.07;;;27.80;35.60;;;;;;6291798;28;20112;-82
2021/03/30 10:42:17;;;;;;;8.52;5.03;;;27.70;34.50;;;;;;6274416;28;20436;-84
2021/03/30 10:45:28;;;;;;;5.28;4.10;;;27.90;34.50;;;;;;6260164;28;20036;-86
2021/03/30 10:48:28;;;;;;;6.55;3.97;;;27.70;36.50;;;;;;6257632;28;20031;-81
2021/03/30 10:51:31;;;;;;;8.03;5.27;;;27.60;36.30;;;;;;6274757;28;20107;-79
2021/03/30 10:54:31;;;;;;;6.05;3.88;;;27.70;35.20;;;;;;6275967;28;20089;-81
2021/03/30 10:57:35;;;;;;;8.07;4.70;;;27.40;36.00;;;;;;6274684;28;20060;-81
2021/03/30 11:00:36;;;;;;;5.75;4.20;;;27.20;35.60;;;;;;6258176;28;20064;-82
2021/03/30 11:03:36;;;;;;;5.37;3.97;;;27.00;35.40;;;;;;6274534;28;20028;-83
2021/03/30 11:06:37;;;;;;;7.17;4.00;;;27.10;35.60;;;;;;6257264;28;20033;-84
2021/03/30 11:09:38;;;;;;;7.63;3.93;;;26.90;37.10;;;;;;6258130;28;20110;-83
2021/03/30 11:12:40;;;;;;;5.57;3.93;;;26.90;36.90;;;;;;6274077;28;20375;-81
2021/03/30 11:15:41;;;;;;;7.15;3.90;;;26.70;37.30;;;;;;6253463;28;20282;-81
2021/03/30 11:18:42;;;;;;;7.15;4.38;;;26.80;36.90;;;;;;6256420;28;20044;-82
2021/03/30 11:21:43;;;;;;;6.50;4.13;;;27.10;38.20;;;;;;6273060;28;20070;-83
2021/03/30 11:24:44;;;;;;;5.00;3.50;;;26.80;37.40;;;;;;6272159;28;20068;-83
2021/03/30 11:27:50;;;;;;;6.78;3.90;;;26.70;38.40;;;;;;6273406;28;20021;-83
2021/03/30 11:30:56;;;;;;;7.15;3.45;;;26.70;37.30;;;;;;6273991;28;20119;-83
2021/03/30 11:34:07;;;;;;;7.25;4.57;;;26.70;37.30;;;;;;6257686;28;20032;-87
2021/03/30 11:37:19;;;;;;;7.13;4.07;;;26.70;37.10;;;;;;6260230;28;20699;-85
2021/03/30 11:40:20;;;;;;;6.47;3.63;;;26.80;37.30;;;;;;6259711;28;20039;-81
2021/03/30 11:43:20;;;;;;;7.77;3.87;;;26.80;37.00;;;;;;6290377;28;20490;-83
2021/03/30 11:46:21;;;;;;;6.90;3.83;;;26.60;36.50;;;;;;6255232;28;20448;-85
2021/03/30 11:49:21;;;;;;;7.40;3.87;;;26.50;37.50;;;;;;6274681;28;20115;-83
2021/03/30 11:52:22;;;;;;;4.77;3.50;;;26.40;37.10;;;;;;6276767;28;20044;-83
2021/03/30 11:55:23;;;;;;;5.80;3.63;;;26.40;37.30;;;;;;6260721;28;20024;-85
2021/03/30 11:58:23;;;;;;;7.13;3.80;;;26.40;38.50;;;;;;6276791;28;20040;-82
2021/03/30 12:01:24;;;;;;;6.00;3.70;;;26.20;38.60;;;;;;6293891;28;20106;-86
2021/03/30 12:04:25;;;;;;;5.57;3.83;;;26.10;38.60;;;;;;6277975;28;20120;-84
2021/03/30 12:07:25;;;;;;;7.30;3.97;;;26.00;38.00;;;;;;6278346;28;20028;-87
2021/03/30 12:10:26;;;;;;;6.23;4.00;;;;;;;;;;6278206;28;20078;-85
2021/03/30 12:13:27;;;;;;;5.83;3.60;;;26.00;44.80;;;;;;6276468;28;20028;-87
2021/03/30 12:16:28;;;;;;;5.10;3.33;;;26.40;49.00;;;;;;6261399;28;20028;-83
2021/03/30 12:19:28;;;;;;;5.03;3.37;;;25.80;47.70;;;;;;6278426;28;20433;-81
2021/03/30 12:22:29;;;;;;;4.97;3.33;;;25.80;39.10;;;;;;6294557;28;20094;-84
2021/03/30 12:25:29;;;;;;;5.93;3.50;;;25.90;37.80;;;;;;6277481;28;20111;-83
2021/03/30 12:28:30;;;;;;;4.97;3.60;;;25.80;39.00;;;;;;6255233;28;20031;-85
2021/03/30 12:31:31;;;;;;;5.90;3.70;;;25.70;38.10;;;;;;6269408;28;20103;-87
2021/03/30 12:34:34;;;;;;;6.47;3.53;;;25.70;39.60;;;;;;6261045;28;20122;-84
2021/03/30 12:37:36;;;;;;;7.28;3.75;;;25.80;40.10;;;;;;6277550;28;20032;-84
2021/03/30 12:40:37;;;;;;;5.88;3.42;;;26.40;38.80;;;;;;6260202;28;20056;-81
2021/03/30 12:43:37;;;;;;;5.25;3.17;;;25.60;39.90;;;;;;6260254;28;20074;-85
2021/03/30 12:46:38;;;;;;;7.90;3.50;;;25.50;40.30;;;;;;6260291;28;20467;-84
2021/03/30 12:49:39;;;;;;;6.33;3.83;;;25.40;40.00;;;;;;6259865;28;20023;-87
2021/03/30 12:52:39;;;;;;;6.20;4.13;;;25.40;40.30;;;;;;6261063;28;20109;-86
2021/03/30 12:55:40;;;;;;;9.10;3.63;;;25.30;40.80;;;;;;6277134;28;20475;-86
2021/03/30 12:58:40;;;;;;;4.80;3.43;;;25.30;41.00;;;;;;6260336;28;20055;-82
2021/03/30 13:01:41;;;;;;;5.10;3.40;;;25.30;40.30;;;;;;6298421;28;20036;-81
2021/03/30 13:04:44;;;;;;;5.17;3.07;;;25.30;40.60;;;;;;6276993;28;20465;-86
2021/03/30 13:07:44;;;;;;;11.32;3.95;;;25.00;40.60;;;;;;6260436;28;20029;-82
2021/03/30 13:10:45;;;;;;;4.67;3.37;;;25.00;39.10;;;;;;6276704;28;20059;-85
2021/03/30 13:13:46;;;;;;;8.07;4.00;;;24.90;40.80;;;;;;6275498;28;20039;-85
2021/03/30 13:16:46;;;;;;;5.60;3.70;;;24.80;42.60;;;;;;6258192;28;20504;-84
2021/03/30 13:19:47;;;;;;;8.60;3.70;;;24.90;42.00;;;;;;6274974;28;20032;-85
2021/03/30 13:22:49;;;;;;;9.17;4.17;;;25.10;40.50;;;;;;6260181;28;20182;-84
2021/03/30 13:25:49;;;;;;;6.95;4.25;;;25.10;41.20;;;;;;6276060;28;20025;-85
2021/03/30 13:28:50;;;;;;;6.73;3.73;;;25.00;41.30;;;;;;6294633;28;20470;-82
2021/03/30 13:31:51;;;;;;;7.17;3.87;;;25.10;41.60;;;;;;6276201;28;20330;-85
2021/03/30 13:34:51;;;;;;;6.10;3.73;;;25.00;40.10;;;;;;6276174;28;20036;-82
2021/03/30 13:37:52;;;;;;;8.00;3.90;;;25.00;40.00;;;;;;6259612;28;20031;-83
2021/03/30 13:40:55;;;;;;;5.97;3.90;;;24.90;39.00;;;;;;6275569;28;20056;-84
2021/03/30 13:43:56;;;;;;;7.68;3.92;;;24.90;40.20;;;;;;6274529;28;20024;-83
2021/03/30 13:46:57;;;;;;;5.47;3.50;;;24.90;41.70;;;;;;6259109;28;20038;-83
2021/03/30 13:49:58;;;;;;;11.73;4.03;;;24.90;40.70;;;;;;6259192;28;20028;-83
2021/03/30 13:52:58;;;;;;;7.10;4.53;;;24.80;39.30;;;;;;6275448;28;20037;-83
2021/03/30 13:55:59;;;;;;;7.65;4.50;;;24.80;40.60;;;;;;6274842;28;20037;-83
2021/03/30 13:58:59;;;;;;;7.75;3.85;;;24.60;40.30;;;;;;6277501;28;20035;-85
2021/03/30 14:02:00;;;;;;;7.22;4.38;;;24.70;41.40;;;;;;6291999;28;20048;-84
2021/03/30 14:05:01;;;;;;;9.57;4.47;;;24.60;40.70;;;;;;6275713;28;20415;-84
2021/03/30 14:08:01;;;;;;;9.97;4.20;;;24.70;40.00;;;;;;6258930;28;20036;-83
2021/03/30 14:11:02;;;;;;;8.10;4.43;;;24.70;41.70;;;;;;6260312;28;20097;-84
2021/03/30 14:17:35;;;;;;;6.45;4.22;;;24.60;40.00;;;;;;6285400;28;20062;-85
2021/03/30 14:20:44;;;;;;;8.82;3.95;;;24.60;40.40;;;;;;6289414;28;20050;-84
2021/03/30 14:24:06;;;;;;;7.82;4.03;;;24.60;41.80;;;;;;6304653;28;20028;-84
2021/03/30 14:27:08;;;;;;;6.47;3.70;;;24.60;41.00;;;;;;6299179;28;20391;-80
2021/03/30 14:30:09;;;;;;;6.90;3.75;;;24.50;40.80;;;;;;6287331;28;20024;-88
2021/03/30 14:33:11;;;;;;;7.80;3.83;;;24.50;42.00;;;;;;6270055;28;20082;-77
2021/03/30 14:36:13;;;;;;;8.75;4.40;;;24.40;41.10;;;;;;6293359;28;20128;-77
2021/03/30 14:39:14;;;;;;;4.83;3.60;;;24.40;41.50;;;;;;6275163;28;20111;-78
2021/03/30 14:42:18;;;;;;;5.05;3.33;;;24.30;40.80;;;;;;6274648;28;20088;-79
2021/03/30 14:46:16;;;;;;;6.93;3.38;;;24.40;40.90;;;;;;6292866;28;20510;-78
2021/03/30 14:52:06;;;;;;;9.15;4.00;;;24.10;41.50;;;;;;6290935;28;20028;-78
2021/03/30 15:04:26;;;;;;;4.90;3.75;;;24.00;41.00;;;;;;6292425;28;20028;-78
2021/03/30 15:07:27;;;;;;;6.20;3.40;;;24.00;51.50;;;;;;6291261;28;20958;-78
2021/03/30 15:10:28;;;;;;;5.33;3.10;;;24.00;52.20;;;;;;6292224;28;20107;-78
2021/03/30 15:13:28;;;;;;;3.72;3.10;;;23.80;48.90;;;;;;6274623;28;20029;-78
2021/03/30 15:16:29;;;;;;;6.17;3.53;;;23.90;41.20;;;;;;6290803;28;20409;-78
2021/03/30 15:19:29;;;;;;;5.97;3.63;;;23.90;42.70;;;;;;6274488;28;20028;-79
2021/03/30 15:22:30;;;;;;;5.55;3.40;;;23.70;41.70;;;;;;6290596;28;20058;-78
2021/03/30 15:25:31;;;;;;;5.15;3.33;;;23.80;41.90;;;;;;6294100;28;20027;-77
2021/03/30 15:28:31;;;;;;;5.75;3.50;;;23.70;44.80;;;;;;6294574;28;20386;-77
2021/03/30 15:31:32;;;;;;;7.97;3.38;;;23.70;43.90;;;;;;6294746;28;20031;-77
2021/03/30 15:34:32;;;;;;;6.43;3.67;;;23.70;42.40;;;;;;6295342;28;20390;-80
2021/03/30 15:37:33;;;;;;;4.88;3.40;;;23.60;43.00;;;;;;6296217;28;20463;-80
2021/03/30 15:40:34;;;;;;;4.15;3.33;;;23.50;42.70;;;;;;6262190;28;20151;-78
2021/03/30 15:43:37;;;;;;;4.78;3.22;;;23.40;43.00;;;;;;6296009;28;20470;-77
2021/03/30 15:49:38;;;;;;;5.75;3.65;;;23.30;44.80;;;;;;6278380;28;20035;-80
2021/03/30 15:52:40;;;;;;;6.20;3.72;;;23.20;43.70;;;;;;6277801;28;20025;-82
2021/03/30 15:55:41;;;;;;;5.00;3.75;;;23.20;43.80;;;;;;6276463;28;20024;-86
2021/03/30 15:58:42;;;;;;;5.82;4.05;;;23.10;44.10;;;;;;6259873;28;20593;-82
2021/03/30 16:01:42;;;;;;;7.03;3.92;;;23.10;43.40;;;;;;6293488;28;20041;-81
2021/03/30 16:04:44;;;;;;;8.88;4.40;;;23.00;44.80;;;;;;6292616;28;20034;-84
2021/03/30 16:07:45;;;;;;;10.80;4.72;;;23.00;46.10;;;;;;6275011;28;20561;-82
2021/03/30 16:10:45;;;;;;;6.20;4.47;;;23.00;47.10;;;;;;6258142;28;20072;-83
2021/03/30 16:13:46;;;;;;;7.07;4.70;;;22.90;47.80;;;;;;6258678;28;20090;-87
2021/03/30 16:16:46;;;;;;;7.75;4.18;;;22.80;47.60;;;;;;6274962;28;20054;-82
2021/03/30 16:19:47;;;;;;;7.80;4.63;;;22.70;45.00;;;;;;6260424;28;20028;-84
2021/03/30 16:22:47;;;;;;;8.48;3.92;;;22.60;46.50;;;;;;6275749;28;20545;-83
2021/03/30 16:25:50;;;;;;;6.82;3.75;;;22.60;46.50;;;;;;6278409;28;20032;-80
2021/03/30 16:28:50;;;;;;;5.40;3.90;;;22.60;47.30;;;;;;6292864;28;20063;-78
2021/03/30 16:31:51;;;;;;;5.88;4.25;;;22.50;47.60;;;;;;6293287;28;20047;-81
2021/03/30 16:34:52;;;;;;;4.57;3.72;;;22.30;47.40;;;;;;6293861;28;20029;-80
2021/03/30 16:37:52;;;;;;;8.25;4.13;;;22.20;46.80;;;;;;6294594;28;20467;-81